createdAt,value
2018-02-17T00:00:53.113Z,102026.69
2018-02-17T00:03:21.970Z,102020.69
2018-02-17T00:05:50.490Z,102015.16
2018-02-17T00:08:19.107Z,102009.84
2018-02-17T00:10:48.326Z,102010.30
2018-02-17T00:13:16.812Z,102000.56
2018-02-17T00:15:45.291Z,102001.78
2018-02-17T00:18:13.856Z,101994.80
2018-02-17T00:20:51.488Z,101997.53
2018-02-17T00:23:20.302Z,101988.27
2018-02-17T00:25:48.897Z,101991.53
2018-02-17T00:28:17.534Z,101990.13
2018-02-17T00:30:47.571Z,101987.47
2018-02-17T00:33:16.123Z,101987.91
2018-02-17T00:35:45.297Z,101990.59
2018-02-17T00:38:14.067Z,101983.41
2018-02-17T00:40:42.656Z,101979.05
2018-02-17T00:43:11.100Z,101963.17
2018-02-17T00:45:39.492Z,101957.81
2018-02-17T00:48:07.968Z,101947.98
2018-02-17T00:50:37.112Z,101941.17
2018-02-17T00:53:05.489Z,101947.38
2018-02-17T00:55:33.940Z,101948.89
2018-02-17T00:58:02.343Z,101956.18
2018-02-17T01:00:30.780Z,101947.37
2018-02-17T01:02:59.941Z,101942.69
2018-02-17T01:05:28.405Z,101937.62
2018-02-17T01:07:56.804Z,101938.64
2018-02-17T01:10:25.254Z,101933.02
2018-02-17T01:12:54.785Z,101925.33
2018-02-17T01:15:23.212Z,101911.59
2018-02-17T01:17:53.190Z,101902.52
2018-02-17T01:20:21.644Z,101905.68
2018-02-17T01:22:51.583Z,101902.16
2018-02-17T01:25:20.037Z,101895.34
2018-02-17T01:27:50.789Z,101898.97
2018-02-17T01:30:19.350Z,101896.16
2018-02-17T01:32:50.123Z,101895.92
2018-02-17T01:35:18.500Z,101890.97
2018-02-17T01:37:48.834Z,101889.10
2018-02-17T01:40:17.223Z,101889.49
2018-02-17T01:42:47.340Z,101889.00
2018-02-17T01:45:15.762Z,101883.69
2018-02-17T01:47:46.317Z,101884.14
2018-02-17T01:50:33.353Z,101886.25
2018-02-17T01:53:05.947Z,101888.13
2018-02-17T01:55:34.326Z,101891.25
2018-02-17T01:58:03.991Z,101895.19
2018-02-17T02:00:34.763Z,101895.91
2018-02-17T02:03:03.189Z,101898.47
2018-02-17T02:05:31.624Z,101901.91
2018-02-17T02:08:00.026Z,101896.41
2018-02-17T02:10:28.405Z,101895.93
2018-02-17T02:12:56.826Z,101897.44
2018-02-17T02:15:25.236Z,101901.08
2018-02-17T02:17:53.639Z,101895.91
2018-02-17T02:20:22.036Z,101889.00
2018-02-17T02:22:50.595Z,101885.66
2018-02-17T02:25:18.979Z,101875.45
2018-02-17T02:27:47.376Z,101883.30
2018-02-17T02:30:15.765Z,101889.59
2018-02-17T02:32:44.347Z,101887.13
2018-02-17T02:35:12.777Z,101882.56
2018-02-17T02:37:41.944Z,101877.33
2018-02-17T02:40:11.131Z,101880.80
2018-02-17T02:42:39.518Z,101873.89
2018-02-17T02:45:08.136Z,101869.41
2018-02-17T02:47:37.291Z,101869.38
2018-02-17T02:50:05.697Z,101864.56
2018-02-17T02:52:34.121Z,101868.13
2018-02-17T02:55:02.698Z,101868.27
2018-02-17T02:57:31.097Z,101866.66
2018-02-17T02:59:59.496Z,101857.78
2018-02-17T03:02:27.979Z,101855.22
2018-02-17T03:04:56.460Z,101851.20
2018-02-17T03:07:24.843Z,101845.91
2018-02-17T03:09:53.275Z,101843.61
2018-02-17T03:12:21.715Z,101842.77
2018-02-17T03:14:50.180Z,101839.23
2018-02-17T03:17:18.593Z,101828.44
2018-02-17T03:19:46.984Z,101830.26
2018-02-17T03:22:15.413Z,101825.83
2018-02-17T03:24:43.819Z,101823.03
2018-02-17T03:27:12.966Z,101827.46
2018-02-17T03:29:41.366Z,101814.35
2018-02-17T03:32:09.957Z,101814.78
2018-02-17T03:34:38.388Z,101808.36
2018-02-17T03:37:06.763Z,101808.00
2018-02-17T03:39:35.931Z,101804.14
2018-02-17T03:42:04.366Z,101802.47
2018-02-17T03:44:33.538Z,101799.08
2018-02-17T03:47:02.027Z,101812.75
2018-02-17T03:49:31.181Z,101817.09
2018-02-17T03:51:59.591Z,101814.08
2018-02-17T03:54:27.991Z,101805.69
2018-02-17T03:56:57.140Z,101800.20
2018-02-17T03:59:25.545Z,101788.88
2018-02-17T04:01:54.052Z,101777.80
2018-02-17T04:04:23.883Z,101788.14
2018-02-17T04:06:53.327Z,101785.89
2018-02-17T04:09:21.724Z,101774.95
2018-02-17T04:11:50.122Z,101772.31
2018-02-17T04:14:18.530Z,101780.35
2018-02-17T04:16:46.944Z,101782.21
2018-02-17T04:19:15.378Z,101782.46
2018-02-17T04:21:44.616Z,101777.41
2018-02-17T04:24:13.034Z,101772.51
2018-02-17T04:26:41.426Z,101775.89
2018-02-17T04:29:09.913Z,101774.03
2018-02-17T04:31:38.320Z,101772.47
2018-02-17T04:34:06.820Z,101772.94
2018-02-17T04:36:35.203Z,101767.95
2018-02-17T04:39:03.636Z,101769.08
2018-02-17T04:41:33.274Z,101768.09
2018-02-17T04:44:02.595Z,101758.15
2018-02-17T04:46:36.512Z,101752.41
2018-02-17T04:49:05.213Z,101744.91
2018-02-17T04:51:35.538Z,101740.09
2018-02-17T04:54:06.921Z,101739.59
2018-02-17T04:56:47.087Z,101737.59
2018-02-17T04:59:20.460Z,101732.97
2018-02-17T05:04:50.263Z,101727.14
2018-02-17T05:07:31.294Z,101730.68
2018-02-17T05:10:00.452Z,101722.09
2018-02-17T05:12:28.826Z,101720.58
2018-02-17T05:15:08.207Z,101721.47
2018-02-17T05:17:42.826Z,101726.06
2018-02-17T05:20:22.890Z,101716.55
2018-02-17T05:25:54.788Z,101722.00
2018-02-17T05:31:24.454Z,101711.35
2018-02-17T05:33:58.454Z,101714.39
2018-02-17T05:39:37.698Z,101706.50
2018-02-17T05:42:10.343Z,101709.63
2018-02-17T05:44:45.434Z,101702.62
2018-02-17T05:47:15.845Z,101698.32
2018-02-17T05:49:47.570Z,101702.64
2018-02-17T05:52:16.748Z,101704.05
2018-02-17T05:54:46.318Z,101701.31
2018-02-17T05:57:14.815Z,101697.39
2018-02-17T05:59:43.227Z,101692.58
2018-02-17T06:02:11.609Z,101690.52
2018-02-17T06:04:40.167Z,101689.45
2018-02-17T06:07:08.571Z,101691.64
2018-02-17T06:09:36.990Z,101692.08
2018-02-17T06:12:07.842Z,101685.18
2018-02-17T06:14:37.019Z,101680.91
2018-02-17T06:17:05.483Z,101685.77
2018-02-17T06:19:35.467Z,101672.87
2018-02-17T06:22:03.889Z,101675.42
2018-02-17T06:24:32.282Z,101673.91
2018-02-17T06:27:00.821Z,101671.17
2018-02-17T06:29:29.913Z,101666.89
2018-02-17T06:31:58.321Z,101660.41
2018-02-17T06:34:26.712Z,101657.23
2018-02-17T06:36:55.907Z,101653.25
2018-02-17T06:39:25.285Z,101652.92
2018-02-17T06:41:53.703Z,101654.37
2018-02-17T06:44:22.863Z,101656.48
2018-02-17T06:46:51.396Z,101648.30
2018-02-17T06:49:19.817Z,101639.86
2018-02-17T06:51:48.213Z,101643.04
2018-02-17T06:54:16.628Z,101628.28
2018-02-17T06:56:45.812Z,101617.69
2018-02-17T06:59:14.195Z,101624.06
2018-02-17T07:01:43.355Z,101619.64
2018-02-17T07:04:11.817Z,101621.34
2018-02-17T07:06:40.262Z,101623.70
2018-02-17T07:09:09.487Z,101633.09
2018-02-17T07:11:38.766Z,101633.95
2018-02-17T07:14:07.931Z,101627.41
2018-02-17T07:16:36.371Z,101619.94
2018-02-17T07:19:04.800Z,101625.44
2018-02-17T07:21:33.208Z,101619.16
2018-02-17T07:24:02.375Z,101621.98
2018-02-17T07:26:30.838Z,101623.21
2018-02-17T07:28:59.239Z,101618.34
2018-02-17T07:31:27.699Z,101618.34
2018-02-17T07:33:56.099Z,101620.56
2018-02-17T07:36:24.554Z,101617.45
2018-02-17T07:38:53.143Z,101622.92
2018-02-17T07:41:21.571Z,101615.77
2018-02-17T07:43:50.835Z,101626.00
2018-02-17T07:46:19.237Z,101629.66
2018-02-17T07:48:47.643Z,101637.33
2018-02-17T07:51:16.821Z,101639.17
2018-02-17T07:53:45.217Z,101635.47
2018-02-17T07:56:14.372Z,101630.50
2018-02-17T07:58:42.795Z,101627.78
2018-02-17T08:01:11.208Z,101631.27
2018-02-17T08:03:39.833Z,101633.16
2018-02-17T08:06:09.010Z,101634.22
2018-02-17T08:08:37.432Z,101640.44
2018-02-17T08:11:07.179Z,101643.97
2018-02-17T08:13:35.577Z,101635.02
2018-02-17T08:16:05.500Z,101643.25
2018-02-17T08:18:35.439Z,101634.98
2018-02-17T08:21:03.853Z,101637.55
2018-02-17T08:23:33.031Z,101642.69
2018-02-17T08:26:02.391Z,101641.27
2018-02-17T08:28:30.993Z,101637.13
2018-02-17T08:30:59.372Z,101633.86
2018-02-17T08:33:27.791Z,101632.38
2018-02-17T08:35:56.964Z,101636.09
2018-02-17T08:38:25.368Z,101635.48
2018-02-17T08:40:54.516Z,101632.47
2018-02-17T08:43:22.965Z,101626.44
2018-02-17T08:45:51.481Z,101630.14
2018-02-17T08:48:19.951Z,101624.19
2018-02-17T08:50:48.367Z,101631.00
2018-02-17T08:53:16.813Z,101622.06
2018-02-17T08:55:45.227Z,101615.89
2018-02-17T08:58:13.840Z,101620.16
2018-02-17T09:00:42.263Z,101617.80
2018-02-17T09:03:10.690Z,101615.47
2018-02-17T09:05:39.125Z,101615.01
2018-02-17T09:08:07.554Z,101612.85
2018-02-17T09:10:56.682Z,101608.31
2018-02-17T09:13:25.079Z,101601.25
2018-02-17T09:15:53.464Z,101605.19
2018-02-17T09:18:22.640Z,101600.30
2018-02-17T09:20:51.048Z,101599.67
2018-02-17T09:23:19.448Z,101607.27
2018-02-17T09:25:47.820Z,101606.52
2018-02-17T09:28:16.211Z,101607.71
2018-02-17T09:30:44.632Z,101607.48
2018-02-17T09:33:13.026Z,101607.52
2018-02-17T09:35:41.401Z,101612.80
2018-02-17T09:38:09.856Z,101612.63
2018-02-17T09:40:39.216Z,101607.39
2018-02-17T09:43:07.602Z,101616.45
2018-02-17T09:45:37.680Z,101612.36
2018-02-17T09:48:06.500Z,101614.70
2018-02-17T09:50:34.917Z,101612.72
2018-02-17T09:53:04.247Z,101602.45
2018-02-17T09:55:32.784Z,101601.63
2018-02-17T09:58:01.159Z,101600.13
2018-02-17T10:00:29.584Z,101594.30
2018-02-17T10:02:58.768Z,101597.73
2018-02-17T10:05:27.190Z,101599.97
2018-02-17T10:07:55.612Z,101601.22
2018-02-17T10:10:24.023Z,101607.47
2018-02-17T10:12:53.207Z,101604.34
2018-02-17T10:15:22.388Z,101609.37
2018-02-17T10:17:50.880Z,101610.81
2018-02-17T10:20:19.307Z,101612.55
2018-02-17T10:22:47.760Z,101611.70
2018-02-17T10:25:17.883Z,101604.48
2018-02-17T10:27:46.288Z,101609.23
2018-02-17T10:30:14.744Z,101608.56
2018-02-17T10:32:45.648Z,101615.08
2018-02-17T10:35:14.021Z,101622.26
2018-02-17T10:37:44.258Z,101621.58
2018-02-17T10:40:12.651Z,101632.05
2018-02-17T10:42:42.535Z,101619.84
2018-02-17T10:45:11.354Z,101624.19
2018-02-17T10:47:42.104Z,101630.59
2018-02-17T10:50:11.495Z,101630.80
2018-02-17T10:52:42.280Z,101628.45
2018-02-17T10:55:11.005Z,101629.97
2018-02-17T10:57:41.496Z,101630.33
2018-02-17T11:00:10.024Z,101625.20
2018-02-17T11:02:40.466Z,101615.58
2018-02-17T11:05:11.119Z,101611.02
2018-02-17T11:07:41.355Z,101602.81
2018-02-17T11:10:10.536Z,101601.59
2018-02-17T11:12:40.826Z,101601.44
2018-02-17T11:15:09.824Z,101606.37
2018-02-17T11:17:39.342Z,101606.87
2018-02-17T11:20:07.731Z,101606.59
2018-02-17T11:22:36.150Z,101604.88
2018-02-17T11:25:04.608Z,101603.37
2018-02-17T11:27:33.151Z,101606.25
2018-02-17T11:30:01.581Z,101601.39
2018-02-17T11:32:30.035Z,101601.06
2018-02-17T11:34:58.459Z,101600.02
2018-02-17T11:37:26.937Z,101603.70
2018-02-17T11:39:55.436Z,101605.66
2018-02-17T11:42:23.887Z,101600.13
2018-02-17T11:44:52.330Z,101606.75
2018-02-17T11:47:21.557Z,101600.95
2018-02-17T11:49:49.989Z,101599.30
2018-02-17T11:52:18.519Z,101595.05
2018-02-17T11:54:46.930Z,101599.09
2018-02-17T11:57:15.395Z,101606.92
2018-02-17T11:59:43.786Z,101608.34
2018-02-17T12:02:12.276Z,101599.54
2018-02-17T12:04:40.745Z,101598.98
2018-02-17T12:07:09.132Z,101592.36
2018-02-17T12:09:37.545Z,101599.28
2018-02-17T12:12:05.987Z,101606.13
2018-02-17T12:14:34.368Z,101610.80
2018-02-17T12:17:03.570Z,101614.06
2018-02-17T12:19:31.999Z,101619.36
2018-02-17T12:22:00.537Z,101615.98
2018-02-17T12:24:28.964Z,101617.72
2018-02-17T12:26:57.353Z,101622.21
2018-02-17T12:29:25.786Z,101613.23
2018-02-17T12:31:55.151Z,101614.13
2018-02-17T12:34:26.048Z,101610.18
2018-02-17T12:36:54.497Z,101606.39
2018-02-17T12:39:22.910Z,101611.52
2018-02-17T12:41:51.371Z,101606.47
2018-02-17T12:44:19.785Z,101608.18
2018-02-17T12:46:48.183Z,101615.84
2018-02-17T12:49:16.579Z,101617.36
2018-02-17T12:51:45.747Z,101624.17
2018-02-17T12:54:14.208Z,101621.25
2018-02-17T12:56:42.600Z,101625.88
2018-02-17T12:59:11.012Z,101626.19
2018-02-17T13:01:39.465Z,101629.78
2018-02-17T13:04:07.907Z,101627.42
2018-02-17T13:06:36.312Z,101627.42
2018-02-17T13:09:04.683Z,101625.61
2018-02-17T13:11:33.054Z,101616.53
2018-02-17T13:14:01.435Z,101618.83
2018-02-17T13:16:29.852Z,101615.38
2018-02-17T13:18:59.650Z,101617.36
2018-02-17T13:21:28.061Z,101622.50
2018-02-17T13:23:58.140Z,101619.25
2018-02-17T13:26:26.601Z,101613.13
2018-02-17T13:28:57.154Z,101612.53
2018-02-17T13:31:25.571Z,101615.65
2018-02-17T13:33:55.969Z,101613.68
2018-02-17T13:36:24.352Z,101618.28
2018-02-17T13:38:54.087Z,101618.20
2018-02-17T13:41:22.459Z,101613.40
2018-02-17T13:43:52.486Z,101615.51
2018-02-17T13:46:20.954Z,101621.48
2018-02-17T13:48:50.864Z,101614.38
2018-02-17T13:51:19.428Z,101607.66
2018-02-17T13:53:48.127Z,101608.45
2018-02-17T13:56:16.514Z,101611.75
2018-02-17T13:58:56.231Z,101615.20
2018-02-17T14:01:26.645Z,101615.58
2018-02-17T14:03:59.906Z,101616.24
2018-02-17T14:06:28.407Z,101617.91
2018-02-17T14:08:59.056Z,101619.27
2018-02-17T14:11:28.311Z,101627.38
2018-02-17T14:13:58.431Z,101618.36
2018-02-17T14:16:27.423Z,101616.61
2018-02-17T14:18:58.760Z,101615.91
2018-02-17T14:21:27.217Z,101616.77
2018-02-17T14:23:58.179Z,101618.12
2018-02-17T14:26:26.599Z,101620.41
2018-02-17T14:28:55.879Z,101622.17
2018-02-17T14:31:24.285Z,101622.86
2018-02-17T14:33:52.873Z,101622.53
2018-02-17T14:36:21.342Z,101628.16
2018-02-17T14:38:49.754Z,101629.88
2018-02-17T14:41:18.918Z,101630.55
2018-02-17T14:43:47.392Z,101634.09
2018-02-17T14:46:15.897Z,101627.35
2018-02-17T14:48:44.419Z,101626.33
2018-02-17T14:51:13.656Z,101623.48
2018-02-17T14:53:42.386Z,101628.27
2018-02-17T14:56:13.109Z,101627.82
2018-02-17T14:58:42.540Z,101628.20
2018-02-17T15:01:19.185Z,101633.98
2018-02-17T15:03:48.350Z,101636.38
2018-02-17T15:06:16.972Z,101634.31
2018-02-17T15:08:45.406Z,101631.57
2018-02-17T15:11:13.912Z,101634.30
2018-02-17T15:13:42.439Z,101634.98
2018-02-17T15:16:10.871Z,101639.25
2018-02-17T15:18:39.269Z,101635.91
2018-02-17T15:21:07.666Z,101641.02
2018-02-17T15:23:36.098Z,101640.80
2018-02-17T15:26:04.564Z,101637.14
2018-02-17T15:28:38.790Z,101638.07
2018-02-17T15:31:07.287Z,101640.05
2018-02-17T15:33:35.947Z,101643.33
2018-02-17T15:36:06.208Z,101640.75
2018-02-17T15:38:37.008Z,101644.38
2018-02-17T15:41:17.130Z,101641.77
2018-02-17T15:43:46.436Z,101645.30
2018-02-17T15:46:25.397Z,101645.11
2018-02-17T15:48:54.757Z,101650.30
2018-02-17T15:51:23.384Z,101643.30
2018-02-17T15:53:52.580Z,101644.42
2018-02-17T15:56:21.065Z,101650.20
2018-02-17T15:58:49.552Z,101658.64
2018-02-17T16:01:18.178Z,101666.50
2018-02-17T16:03:46.756Z,101666.67
2018-02-17T16:06:16.077Z,101674.45
2018-02-17T16:08:44.791Z,101677.47
2018-02-17T16:11:13.299Z,101672.11
2018-02-17T16:13:41.758Z,101675.93
2018-02-17T16:16:20.210Z,101679.20
2018-02-17T16:18:49.940Z,101681.57
2018-02-17T16:21:19.442Z,101684.09
2018-02-17T16:23:47.900Z,101689.95
2018-02-17T16:26:17.693Z,101682.72
2018-02-17T16:28:46.113Z,101698.36
2018-02-17T16:31:14.834Z,101696.81
2018-02-17T16:33:43.405Z,101697.13
2018-02-17T16:36:15.729Z,101707.17
2018-02-17T16:38:44.219Z,101703.80
2018-02-17T16:41:15.863Z,101705.48
2018-02-17T16:43:56.672Z,101703.89
2018-02-17T16:46:39.236Z,101707.03
2018-02-17T16:49:19.237Z,101706.83
2018-02-17T16:51:49.581Z,101706.38
2018-02-17T16:54:18.176Z,101708.88
2018-02-17T16:56:46.728Z,101716.59
2018-02-17T16:59:15.409Z,101721.50
2018-02-17T17:01:45.332Z,101717.59
2018-02-17T17:04:14.637Z,101726.61
2018-02-17T17:06:43.033Z,101722.17
2018-02-17T17:09:11.467Z,101727.11
2018-02-17T17:14:48.994Z,101742.11
2018-02-17T17:17:17.403Z,101754.83
2018-02-17T17:19:46.604Z,101763.80
2018-02-17T17:22:15.768Z,101765.30
2018-02-17T17:24:44.160Z,101775.02
2018-02-17T17:27:12.577Z,101775.42
2018-02-17T17:29:41.018Z,101779.37
2018-02-17T17:32:10.308Z,101782.23
2018-02-17T17:34:38.712Z,101782.67
2018-02-17T17:37:07.126Z,101781.86
2018-02-17T17:39:35.760Z,101791.42
2018-02-17T17:42:04.236Z,101792.77
2018-02-17T17:44:33.507Z,101799.92
2018-02-17T17:47:02.725Z,101803.75
2018-02-17T17:49:31.163Z,101816.52
2018-02-17T17:51:59.897Z,101823.52
2018-02-17T17:54:30.175Z,101818.45
2018-02-17T17:57:01.014Z,101822.19
2018-02-17T17:59:30.259Z,101824.33
2018-02-17T18:01:58.845Z,101822.78
2018-02-17T18:04:27.466Z,101826.56
2018-02-17T18:06:56.669Z,101834.16
2018-02-17T18:09:25.840Z,101837.72
2018-02-17T18:11:54.321Z,101835.55
2018-02-17T18:14:23.761Z,101841.67
2018-02-17T18:16:53.139Z,101842.30
2018-02-17T18:19:21.535Z,101840.95
2018-02-17T18:21:49.975Z,101844.63
2018-02-17T18:24:18.600Z,101852.69
2018-02-17T18:26:47.863Z,101852.00
2018-02-17T18:29:17.237Z,101852.30
2018-02-17T18:31:45.625Z,101857.88
2018-02-17T18:34:14.066Z,101857.05
2018-02-17T18:36:42.529Z,101860.20
2018-02-17T18:39:11.107Z,101860.58
2018-02-17T18:41:39.563Z,101864.84
2018-02-17T18:44:07.981Z,101862.48
2018-02-17T18:46:38.298Z,101859.01
2018-02-17T18:49:07.076Z,101861.72
2018-02-17T18:51:35.522Z,101862.45
2018-02-17T18:54:04.780Z,101862.66
2018-02-17T18:56:33.240Z,101858.70
2018-02-17T18:59:01.750Z,101867.59
2018-02-17T19:01:31.098Z,101864.78
2018-02-17T19:03:59.501Z,101871.72
2018-02-17T19:06:27.914Z,101867.53
2018-02-17T19:08:58.072Z,101873.77
2018-02-17T19:11:27.291Z,101873.58
2018-02-17T19:13:55.740Z,101873.00
2018-02-17T19:16:24.997Z,101873.01
2018-02-17T19:18:53.647Z,101873.98
2018-02-17T19:21:22.846Z,101875.90
2018-02-17T19:23:52.118Z,101871.27
2018-02-17T19:26:20.591Z,101867.58
2018-02-17T19:28:49.049Z,101870.89
2018-02-17T19:31:17.502Z,101876.49
2018-02-17T19:33:46.545Z,101880.95
2018-02-17T19:36:15.097Z,101877.81
2018-02-17T19:38:43.580Z,101877.34
2018-02-17T19:41:11.979Z,101878.39
2018-02-17T19:43:40.375Z,101881.70
2018-02-17T19:46:09.723Z,101886.67
2018-02-17T19:48:38.153Z,101876.11
2018-02-17T19:51:06.945Z,101885.16
2018-02-17T19:53:36.195Z,101882.31
2018-02-17T19:56:07.012Z,101885.08
2018-02-17T19:58:35.717Z,101883.47
2018-02-17T20:01:04.865Z,101888.55
2018-02-17T20:03:33.670Z,101895.48
2018-02-17T20:06:02.097Z,101894.55
2018-02-17T20:08:30.801Z,101903.08
2018-02-17T20:10:59.223Z,101904.37
2018-02-17T20:13:27.676Z,101913.55
2018-02-17T20:15:56.139Z,101908.50
2018-02-17T20:18:25.542Z,101908.27
2018-02-17T20:20:54.035Z,101906.72
2018-02-17T20:23:23.179Z,101909.39
2018-02-17T20:25:51.644Z,101911.62
2018-02-17T20:28:20.302Z,101912.13
2018-02-17T20:30:48.776Z,101919.70
2018-02-17T20:33:17.980Z,101924.68
2018-02-17T20:35:47.168Z,101922.75
2018-02-17T20:38:16.421Z,101930.34
2018-02-17T20:40:45.008Z,101933.59
2018-02-17T20:43:13.695Z,101940.05
2018-02-17T20:45:42.157Z,101944.00
2018-02-17T20:48:11.545Z,101941.58
2018-02-17T20:50:40.959Z,101951.40
2018-02-17T20:53:10.351Z,101953.44
2018-02-17T20:55:39.892Z,101957.23
2018-02-17T20:58:08.642Z,101959.30
2018-02-17T21:00:37.427Z,101968.24
2018-02-17T21:03:06.083Z,101961.28
2018-02-17T21:05:34.548Z,101966.26
2018-02-17T21:08:03.358Z,101962.53
2018-02-17T21:10:31.771Z,101961.72
2018-02-17T21:13:00.652Z,101961.61
2018-02-17T21:15:29.891Z,101963.17
2018-02-17T21:17:58.346Z,101969.89
2018-02-17T21:20:26.892Z,101964.55
2018-02-17T21:22:56.395Z,101972.81
2018-02-17T21:25:24.942Z,101973.41
2018-02-17T21:27:53.773Z,101978.67
2018-02-17T21:30:23.186Z,101984.02
2018-02-17T21:32:51.789Z,101988.52
2018-02-17T21:35:20.542Z,101998.05
2018-02-17T21:37:49.038Z,102002.08
2018-02-17T21:40:17.608Z,102005.33
2018-02-17T21:42:47.047Z,102005.17
2018-02-17T21:45:15.614Z,102012.02
2018-02-17T21:47:44.080Z,102012.52
2018-02-17T21:50:13.509Z,102014.83
2018-02-17T21:52:42.012Z,102022.31
2018-02-17T21:55:10.568Z,102017.68
2018-02-17T21:57:38.964Z,102014.62
2018-02-17T22:00:07.425Z,102021.20
2018-02-17T22:02:36.404Z,102015.23
2018-02-17T22:05:04.806Z,102023.86
2018-02-17T22:07:34.894Z,102025.97
2018-02-17T22:10:04.740Z,102030.56
2018-02-17T22:15:07.955Z,102024.92
2018-02-17T22:17:37.346Z,102032.00
2018-02-17T22:20:05.833Z,102038.38
2018-02-17T22:22:34.248Z,102037.86
2018-02-17T22:25:03.615Z,102041.07
2018-02-17T22:27:32.083Z,102039.46
2018-02-17T22:30:00.841Z,102038.70
2018-02-17T22:32:29.693Z,102041.23
2018-02-17T22:34:58.231Z,102034.38
2018-02-17T22:37:26.860Z,102034.58
2018-02-17T22:39:55.651Z,102029.64
2018-02-17T22:42:24.101Z,102032.94
2018-02-17T22:44:52.875Z,102035.83
2018-02-17T22:47:21.423Z,102035.59
2018-02-17T22:49:52.836Z,102038.80
2018-02-17T22:52:21.269Z,102036.69
2018-02-17T22:54:49.714Z,102042.38
2018-02-17T22:57:18.911Z,102040.09
2018-02-17T22:59:48.176Z,102038.94
2018-02-17T23:02:17.403Z,102039.23
2018-02-17T23:04:46.627Z,102035.54
2018-02-17T23:07:18.337Z,102045.59
2018-02-17T23:09:47.807Z,102041.75
2018-02-17T23:12:16.203Z,102047.59
2018-02-17T23:14:44.643Z,102044.86
2018-02-17T23:17:13.823Z,102050.20
2018-02-17T23:19:42.313Z,102051.34
2018-02-17T23:22:10.817Z,102056.94
2018-02-17T23:24:39.268Z,102055.70
2018-02-17T23:27:07.703Z,102046.79
2018-02-17T23:29:36.131Z,102053.01
2018-02-17T23:32:04.601Z,102045.73
2018-02-17T23:34:34.290Z,102053.61
2018-02-17T23:37:03.169Z,102047.50
2018-02-17T23:39:31.575Z,102050.49
2018-02-17T23:42:00.097Z,102053.66
2018-02-17T23:44:28.542Z,102050.30
2018-02-17T23:46:56.961Z,102050.13
2018-02-17T23:49:25.374Z,102045.48
2018-02-17T23:51:54.529Z,102039.27
2018-02-17T23:54:22.996Z,102043.83
2018-02-17T23:56:51.590Z,102051.11
2018-02-17T23:59:20.010Z,102051.03
